createdAt,value
2018-10-03T00:04:28.990Z,13.30
2018-10-03T00:09:33.167Z,13.30
2018-10-03T00:14:37.429Z,13.30
2018-10-03T00:19:41.622Z,13.30
2018-10-03T00:24:45.860Z,13.30
2018-10-03T00:29:50.122Z,13.30
2018-10-03T00:34:54.342Z,13.30
2018-10-03T00:39:58.621Z,13.40
2018-10-03T00:45:02.797Z,13.30
2018-10-03T00:50:06.981Z,13.30
2018-10-03T00:55:11.189Z,13.40
2018-10-03T01:00:15.739Z,13.40
2018-10-03T01:05:19.939Z,13.40
2018-10-03T01:10:24.179Z,13.30
2018-10-03T01:15:28.511Z,13.30
2018-10-03T01:20:32.755Z,13.30
2018-10-03T01:25:36.991Z,13.20
2018-10-03T01:30:41.200Z,13.20
2018-10-03T01:35:45.339Z,13.20
2018-10-03T01:40:49.554Z,13.10
2018-10-03T01:45:54.011Z,13.10
2018-10-03T01:50:58.314Z,13.00
2018-10-03T01:56:02.548Z,13.10
2018-10-03T02:01:06.706Z,13.10
2018-10-03T02:06:10.955Z,13.10
2018-10-03T02:11:15.133Z,13.10
2018-10-03T02:16:19.372Z,13.10
2018-10-03T02:21:23.737Z,13.10
2018-10-03T02:26:28.083Z,13.10
2018-10-03T02:31:32.435Z,13.10
2018-10-03T02:36:36.603Z,13.00
2018-10-03T02:41:40.815Z,12.90
2018-10-03T02:46:45.045Z,12.80
2018-10-03T02:51:49.850Z,12.70
2018-10-03T02:56:54.056Z,12.80
2018-10-03T03:01:58.325Z,12.70
2018-10-03T03:07:02.507Z,12.60
2018-10-03T03:12:06.847Z,12.60
2018-10-03T03:17:11.050Z,12.60
2018-10-03T03:22:22.439Z,12.60
2018-10-03T03:27:26.618Z,12.50
2018-10-03T03:32:30.884Z,12.50
2018-10-03T03:37:35.059Z,12.50
2018-10-03T03:42:39.255Z,12.40
2018-10-03T03:47:43.541Z,12.50
2018-10-03T03:52:47.762Z,12.50
2018-10-03T03:57:52.001Z,12.40
2018-10-03T04:02:56.271Z,12.40
2018-10-03T04:08:00.458Z,12.40
2018-10-03T04:13:04.942Z,12.40
2018-10-03T04:18:09.123Z,12.30
2018-10-03T04:23:13.337Z,12.30
2018-10-03T04:28:17.519Z,12.30
2018-10-03T04:33:21.754Z,12.30
2018-10-03T04:38:25.989Z,12.30
2018-10-03T04:43:30.152Z,12.20
2018-10-03T04:48:34.482Z,12.10
2018-10-03T04:53:39.005Z,12.10
2018-10-03T04:58:43.368Z,12.00
2018-10-03T05:03:47.775Z,12.00
2018-10-03T05:08:51.941Z,12.00
2018-10-03T05:13:56.466Z,11.90
2018-10-03T05:19:00.880Z,11.90
2018-10-03T05:24:05.173Z,11.80
2018-10-03T05:29:09.583Z,11.90
2018-10-03T05:34:13.983Z,11.80
2018-10-03T05:39:18.620Z,11.70
2018-10-03T05:44:22.809Z,11.70
2018-10-03T05:49:27.078Z,11.60
2018-10-03T05:54:31.372Z,11.80
2018-10-03T05:59:35.626Z,11.70
2018-10-03T06:04:39.852Z,11.60
2018-10-03T06:09:44.040Z,11.80
2018-10-03T06:14:48.264Z,11.70
2018-10-03T06:19:53.081Z,11.80
2018-10-03T06:24:57.351Z,11.80
2018-10-03T06:30:01.642Z,11.80
2018-10-03T06:35:06.146Z,11.80
2018-10-03T06:40:10.357Z,11.80
2018-10-03T06:45:14.621Z,11.80
2018-10-03T06:50:18.965Z,11.70
2018-10-03T06:55:23.340Z,11.80
2018-10-03T07:00:27.760Z,11.90
2018-10-03T07:05:31.948Z,11.90
2018-10-03T07:10:36.143Z,12.00
2018-10-03T07:15:40.350Z,12.10
2018-10-03T07:20:44.587Z,12.10
2018-10-03T07:25:48.847Z,12.20
2018-10-03T07:30:53.005Z,12.20
2018-10-03T07:35:57.198Z,12.30
2018-10-03T07:41:01.379Z,12.30
2018-10-03T07:46:05.546Z,12.40
2018-10-03T07:51:09.742Z,12.40
2018-10-03T07:56:13.965Z,12.50
2018-10-03T08:01:18.248Z,12.50
2018-10-03T08:06:22.478Z,12.60
2018-10-03T08:11:26.847Z,12.70
2018-10-03T08:16:31.180Z,12.70
2018-10-03T08:21:35.360Z,12.80
2018-10-03T08:26:39.530Z,12.90
2018-10-03T08:31:43.800Z,13.10
2018-10-03T08:36:48.166Z,13.20
2018-10-03T08:41:52.344Z,13.10
2018-10-03T08:46:56.601Z,13.30
2018-10-03T08:52:00.992Z,13.30
2018-10-03T08:57:08.659Z,13.30
2018-10-03T09:02:12.898Z,13.50
2018-10-03T09:07:17.485Z,13.60
2018-10-03T09:12:21.787Z,13.50
2018-10-03T09:17:25.960Z,13.70
2018-10-03T09:22:30.469Z,13.80
2018-10-03T09:27:34.756Z,13.90
2018-10-03T09:32:39.004Z,14.00
2018-10-03T09:37:43.270Z,14.10
2018-10-03T09:42:47.614Z,14.30
2018-10-03T09:47:51.965Z,14.40
2018-10-03T09:52:56.429Z,14.40
2018-10-03T09:58:00.646Z,14.30
2018-10-03T10:03:04.852Z,14.30
2018-10-03T10:08:09.069Z,14.30
2018-10-03T10:13:13.494Z,14.20
2018-10-03T10:18:17.707Z,14.40
2018-10-03T10:23:21.904Z,14.40
2018-10-03T10:28:26.185Z,14.50
2018-10-03T10:33:30.572Z,14.70
2018-10-03T10:38:35.033Z,15.00
2018-10-03T10:43:39.377Z,15.20
2018-10-03T10:48:43.594Z,14.90
2018-10-03T10:53:48.020Z,15.10
2018-10-03T10:58:52.389Z,15.20
2018-10-03T11:03:56.629Z,15.10
2018-10-03T11:09:00.945Z,15.00
2018-10-03T11:14:05.185Z,15.30
2018-10-03T11:19:09.758Z,15.30
2018-10-03T11:24:15.335Z,15.20
2018-10-03T11:29:19.416Z,15.10
2018-10-03T11:34:23.887Z,15.20
2018-10-03T11:39:28.415Z,15.40
2018-10-03T11:44:32.770Z,15.50
2018-10-03T11:49:37.016Z,15.60
2018-10-03T11:54:41.223Z,15.50
2018-10-03T11:59:45.634Z,15.50
2018-10-03T12:04:50.496Z,15.50
2018-10-03T12:09:55.124Z,15.60
2018-10-03T12:14:59.401Z,15.40
2018-10-03T12:20:03.763Z,15.50
2018-10-03T12:25:08.150Z,15.60
2018-10-03T12:30:12.401Z,16.00
2018-10-03T12:35:22.075Z,16.20
2018-10-03T12:40:26.401Z,16.30
2018-10-03T12:45:30.736Z,16.20
2018-10-03T12:50:35.479Z,16.60
2018-10-03T12:55:40.004Z,16.80
2018-10-03T13:00:44.380Z,16.40
2018-10-03T13:05:48.826Z,16.80
2018-10-03T13:10:53.525Z,16.50
2018-10-03T13:15:58.287Z,16.60
2018-10-03T13:21:02.501Z,17.00
2018-10-03T13:26:11.288Z,16.80
2018-10-03T13:31:36.854Z,16.60
2018-10-03T13:36:48.574Z,16.70
2018-10-03T13:41:54.521Z,17.10
2018-10-03T13:46:59.500Z,16.70
2018-10-03T13:52:04.215Z,16.90
2018-10-03T13:57:08.751Z,17.00
2018-10-03T14:02:13.709Z,16.70
2018-10-03T14:07:18.113Z,16.60
2018-10-03T14:12:22.361Z,16.60
2018-10-03T14:17:26.720Z,16.10
2018-10-03T14:22:30.933Z,16.70
2018-10-03T14:27:35.112Z,16.30
2018-10-03T14:32:39.697Z,16.40
2018-10-03T14:37:44.107Z,16.40
2018-10-03T14:42:48.667Z,16.50
2018-10-03T14:47:53.168Z,16.70
2018-10-03T14:52:58.213Z,16.90
2018-10-03T14:58:03.123Z,16.80
2018-10-03T15:03:07.548Z,16.50
2018-10-03T15:08:11.717Z,16.50
2018-10-03T15:13:16.194Z,16.80
2018-10-03T15:18:20.616Z,16.50
2018-10-03T15:23:24.878Z,16.60
2018-10-03T15:28:29.255Z,16.60
2018-10-03T15:33:33.492Z,16.40
2018-10-03T15:38:37.743Z,16.40
2018-10-03T15:43:41.995Z,16.30
2018-10-03T15:48:46.377Z,16.60
2018-10-03T15:53:51.053Z,16.30
2018-10-03T15:58:55.991Z,16.30
2018-10-03T16:04:00.749Z,16.10
2018-10-03T16:09:05.754Z,16.00
2018-10-03T16:14:10.086Z,16.00
2018-10-03T16:19:14.355Z,16.00
2018-10-03T16:24:18.541Z,15.80
2018-10-03T16:29:23.711Z,15.80
2018-10-03T16:34:28.096Z,15.80
2018-10-03T16:39:32.388Z,15.70
2018-10-03T16:44:37.035Z,15.60
2018-10-03T16:49:41.418Z,15.60
2018-10-03T16:54:50.389Z,15.50
2018-10-03T16:59:54.645Z,15.80
2018-10-03T17:04:59.536Z,15.80
2018-10-03T17:10:05.872Z,15.90
2018-10-03T17:15:10.162Z,16.00
2018-10-03T17:20:14.340Z,15.90
2018-10-03T17:25:18.738Z,15.90
2018-10-03T17:30:23.119Z,15.80
2018-10-03T17:35:27.299Z,15.70
2018-10-03T17:40:33.238Z,15.60
2018-10-03T17:45:37.495Z,15.50
2018-10-03T17:50:41.809Z,15.30
2018-10-03T17:55:46.743Z,15.10
2018-10-03T18:00:51.695Z,15.30
2018-10-03T18:05:56.014Z,15.10
2018-10-03T18:11:00.218Z,15.10
2018-10-03T18:16:04.486Z,15.30
2018-10-03T18:21:08.856Z,15.20
2018-10-03T18:26:13.387Z,15.00
2018-10-03T18:31:18.276Z,15.10
2018-10-03T18:36:23.621Z,14.80
2018-10-03T18:41:30.945Z,14.70
2018-10-03T18:46:35.644Z,14.90
2018-10-03T18:51:39.940Z,14.80
2018-10-03T18:56:44.273Z,14.70
2018-10-03T19:01:48.976Z,14.60
2018-10-03T19:06:53.900Z,14.60
2018-10-03T19:11:59.492Z,14.50
2018-10-03T19:17:13.537Z,14.50
2018-10-03T19:22:18.880Z,14.30
2018-10-03T19:27:23.258Z,14.20
2018-10-03T19:32:29.354Z,14.10
2018-10-03T19:37:35.116Z,13.90
2018-10-03T19:42:40.678Z,13.90
2018-10-03T19:47:46.479Z,13.70
2018-10-03T19:52:50.709Z,13.70
2018-10-03T19:57:56.241Z,13.90
2018-10-03T20:03:01.205Z,13.70
2018-10-03T20:08:05.777Z,13.80
2018-10-03T20:13:10.486Z,13.70
2018-10-03T20:18:14.726Z,13.80
2018-10-03T20:23:19.179Z,13.70
2018-10-03T20:28:23.445Z,13.40
2018-10-03T20:33:27.761Z,13.50
2018-10-03T20:38:32.072Z,13.50
2018-10-03T20:43:36.716Z,13.50
2018-10-03T20:48:41.100Z,13.50
2018-10-03T20:53:45.370Z,13.40
2018-10-03T20:58:49.622Z,13.30
2018-10-03T21:03:53.815Z,13.30
2018-10-03T21:08:58.060Z,13.30
2018-10-03T21:14:02.233Z,13.20
2018-10-03T21:19:07.010Z,13.00
2018-10-03T21:24:11.213Z,13.10
2018-10-03T21:29:15.389Z,13.10
2018-10-03T21:34:19.586Z,13.10
2018-10-03T21:39:23.979Z,13.00
2018-10-03T21:44:28.341Z,13.00
2018-10-03T21:49:32.585Z,13.00
2018-10-03T21:54:36.835Z,12.90
2018-10-03T21:59:40.973Z,12.90
2018-10-03T22:04:45.269Z,12.90
2018-10-03T22:09:49.413Z,12.80
2018-10-03T22:14:53.657Z,12.70
2018-10-03T22:19:58.003Z,12.70
2018-10-03T22:25:02.184Z,12.60
2018-10-03T22:30:06.563Z,12.70
2018-10-03T22:35:10.953Z,12.60
2018-10-03T22:40:15.108Z,12.60
2018-10-03T22:45:19.329Z,12.50
2018-10-03T22:50:23.502Z,12.50
2018-10-03T22:55:27.676Z,12.40
2018-10-03T23:00:31.920Z,12.50
2018-10-03T23:05:36.205Z,12.50
2018-10-03T23:10:40.418Z,12.40
2018-10-03T23:15:45.696Z,12.40
2018-10-03T23:20:49.909Z,12.40
2018-10-03T23:25:54.163Z,12.30
2018-10-03T23:30:58.495Z,12.30
2018-10-03T23:36:02.680Z,12.30
2018-10-03T23:41:06.994Z,12.30
2018-10-03T23:46:11.257Z,12.30
2018-10-03T23:51:15.401Z,12.20
2018-10-03T23:56:19.571Z,12.20
